This is the latest recevied weather packets stored in our database for station/object N9DRW. If no packets are shown the sender has not sent any weather packets the latest 10 day(s).
| Time | Temp. | Humidity | Pressure | Rain* | Wind** | Luminosity | Snow |
|---|---|---|---|---|---|---|---|
| 1777490526 | 8.89° C | 72% | 0 hPa | 0 mm | - | - | - |
| 1777489926 | 8.89° C | 72% | 0 hPa | 0 mm | - | - | - |
| 1777489326 | 9.44° C | 70% | 0 hPa | 0 mm | - | - | - |
| 1777488726 | 9.44° C | 70% | 0 hPa | 0 mm | - | - | - |
| 1777488126 | 9.44° C | 69% | 0 hPa | 0 mm | - | - | - |
| 1777487526 | 10° C | 68% | 0 hPa | 0 mm | - | - | - |
| 1777486925 | 11.11° C | 63% | 0 hPa | 0 mm | - | - | - |
| 1777486326 | 11.67° C | 61% | 0 hPa | 0 mm | - | - | - |
| 1777485726 | 10.56° C | 63% | 0 hPa | 0 mm | - | - | - |
| 1777485126 | 10° C | 62% | 0 hPa | 0 mm | - | - | - |
| 1777484526 | 10° C | 65% | 0 hPa | 0 mm | - | - | - |
| 1777483926 | 9.44° C | 66% | 0 hPa | 0 mm | - | - | - |
| 1777483325 | 9.44° C | 65% | 0 hPa | 0 mm | - | - | - |
| 1777482726 | 10° C | 66% | 0 hPa | 0 mm | - | - | - |
| 1777482126 | 10° C | 65% | 0 hPa | 0 mm | - | - | - |
| 1777481526 | 10° C | 64% | 0 hPa | 0 mm | - | - | - |
| 1777480926 | 10° C | 64% | 0 hPa | 0 mm | - | - | - |
| 1777480326 | 10° C | 65% | 0 hPa | 0 mm | - | - | - |
| 1777479726 | 9.44° C | 66% | 0 hPa | 0 mm | - | - | - |
| 1777479126 | 9.44° C | 67% | 0 hPa | 0 mm | - | - | - |
| 1777478526 | 8.89° C | 69% | 0 hPa | 0 mm | - | - | - |
| 1777477925 | 9.44° C | 69% | 0 hPa | 0 mm | - | - | - |
| 1777477326 | 8.89° C | 70% | 0 hPa | 0 mm | - | - | - |
| 1777476726 | 8.33° C | 72% | 0 hPa | 0 mm | - | - | - |
| 1777476126 | 8.33° C | 73% | 0 hPa | 0 mm | - | - | - |
* Rain latest hour (hover to see other rain measurements)
** Current wind speed in m/s (hover to see current wind gust speed)